This is the latest recevied weather packets stored in our database for station/object DG0PX-12. If no packets are shown the sender has not sent any weather packets the latest 10 day(s).
| Time | Temp. | Humidity | Pressure | Rain* | Wind** | Luminosity | Snow |
|---|---|---|---|---|---|---|---|
| 1778047247 | 16.67° C | 58% | 940.6 hPa | - | - | - | - |
| 1778046347 | 14.44° C | 70% | 940.6 hPa | - | - | - | - |
| 1778045446 | 13.33° C | 76% | 940.7 hPa | - | - | - | - |
| 1778044546 | 14.44° C | 71% | 940.9 hPa | - | - | - | - |
| 1778043646 | 12.22° C | 79% | 940.9 hPa | - | - | - | - |
| 1778042746 | 12.78° C | 74% | 941 hPa | - | - | - | - |
| 1778041846 | 12.78° C | 74% | 941 hPa | - | - | - | - |
| 1778040946 | 11.67° C | 81% | 941 hPa | - | - | - | - |
| 1778040046 | 11.67° C | 81% | 941 hPa | - | - | - | - |
| 1778039146 | 11.67° C | 78% | 941.1 hPa | - | - | - | - |
| 1778038245 | 12.22° C | 78% | 941.4 hPa | - | - | - | - |
| 1778037345 | 11.67° C | 80% | 941.6 hPa | - | - | - | - |
| 1778036445 | 11.67° C | 79% | 941.5 hPa | - | - | - | - |
| 1778035545 | 11.11° C | 84% | 941.8 hPa | - | - | - | - |
| 1778034645 | 10.56° C | 88% | 941.9 hPa | - | - | - | - |
| 1778033745 | 11.67° C | 84% | 941.5 hPa | - | - | - | - |
| 1778032845 | 11.67° C | 80% | 941.6 hPa | - | - | - | - |
| 1778031945 | 11.67° C | 86% | 941.8 hPa | - | - | - | - |
| 1778031045 | 11.67° C | 85% | 942.1 hPa | - | - | - | - |
| 1778030145 | 12.22° C | 81% | 941.9 hPa | - | - | - | - |
| 1778029244 | 12.78° C | 77% | 941.7 hPa | - | - | - | - |
| 1778028345 | 12.78° C | 80% | 941.9 hPa | - | - | - | - |
| 1778027444 | 12.78° C | 83% | 942.1 hPa | - | - | - | - |
| 1778026544 | 12.78° C | 78% | 941.9 hPa | - | - | - | - |
| 1778025644 | 12.78° C | 79% | 942 hPa | - | - | - | - |
* Rain since midnight (hover to see other rain measurements)
** Current wind speed in m/s (hover to see current wind gust speed)